sensor_id;sensor_type;location;lat;lon;timestamp;pressure;altitude;pressure_sealevel;temperature;humidity
55914;BME280;58179;48.776;9.124;2023-02-12T00:01:22;99269.38;;;4.17;100.00
55914;BME280;58179;48.776;9.124;2023-02-12T00:03:48;99274.78;;;4.08;100.00
55914;BME280;58179;48.776;9.124;2023-02-12T00:06:14;99276.56;;;4.07;100.00
55914;BME280;58179;48.776;9.124;2023-02-12T00:08:42;99276.56;;;4.07;100.00
55914;BME280;58179;48.776;9.124;2023-02-12T00:11:11;99277.25;;;4.09;100.00
55914;BME280;58179;48.776;9.124;2023-02-12T00:13:38;99277.91;;;4.03;100.00
55914;BME280;58179;48.776;9.124;2023-02-12T00:16:06;99275.75;;;4.07;100.00
55914;BME280;58179;48.776;9.124;2023-02-12T00:18:33;99278.88;;;4.10;100.00
55914;BME280;58179;48.776;9.124;2023-02-12T00:20:59;99284.59;;;4.14;100.00
55914;BME280;58179;48.776;9.124;2023-02-12T00:23:25;99281.19;;;4.13;100.00
55914;BME280;58179;48.776;9.124;2023-02-12T00:25:53;99286.75;;;4.10;100.00
55914;BME280;58179;48.776;9.124;2023-02-12T00:28:19;99288.22;;;4.05;100.00
55914;BME280;58179;48.776;9.124;2023-02-12T00:30:45;99286.91;;;4.01;100.00
55914;BME280;58179;48.776;9.124;2023-02-12T00:33:11;99278.22;;;4.00;100.00
55914;BME280;58179;48.776;9.124;2023-02-12T00:35:37;99283.59;;;3.99;100.00
55914;BME280;58179;48.776;9.124;2023-02-12T00:38:03;99285.09;;;4.01;100.00
55914;BME280;58179;48.776;9.124;2023-02-12T00:40:29;99292.81;;;4.03;100.00
55914;BME280;58179;48.776;9.124;2023-02-12T00:42:56;99299.19;;;4.08;100.00
55914;BME280;58179;48.776;9.124;2023-02-12T00:45:22;99294.75;;;4.09;100.00
55914;BME280;58179;48.776;9.124;2023-02-12T00:47:48;99302.63;;;4.09;100.00
55914;BME280;58179;48.776;9.124;2023-02-12T00:50:14;99307.56;;;4.12;100.00
55914;BME280;58179;48.776;9.124;2023-02-12T00:52:40;99304.13;;;4.11;100.00
55914;BME280;58179;48.776;9.124;2023-02-12T00:55:06;99305.59;;;4.06;100.00
55914;BME280;58179;48.776;9.124;2023-02-12T00:57:32;99304.94;;;4.04;100.00
55914;BME280;58179;48.776;9.124;2023-02-12T00:59:59;99305.41;;;3.99;100.00
55914;BME280;58179;48.776;9.124;2023-02-12T01:02:25;99308.00;;;3.99;100.00
55914;BME280;58179;48.776;9.124;2023-02-12T01:04:51;99306.72;;;3.95;100.00
55914;BME280;58179;48.776;9.124;2023-02-12T01:07:17;99300.81;;;3.93;100.00
55914;BME280;58179;48.776;9.124;2023-02-12T01:09:43;99296.88;;;3.89;100.00
55914;BME280;58179;48.776;9.124;2023-02-12T01:12:09;99306.88;;;3.94;100.00
55914;BME280;58179;48.776;9.124;2023-02-12T01:14:35;99299.50;;;3.89;100.00
55914;BME280;58179;48.776;9.124;2023-02-12T01:17:02;99295.09;;;3.89;100.00
55914;BME280;58179;48.776;9.124;2023-02-12T01:19:28;99298.16;;;3.85;100.00
55914;BME280;58179;48.776;9.124;2023-02-12T01:21:54;99302.94;;;3.89;100.00
55914;BME280;58179;48.776;9.124;2023-02-12T01:24:20;99301.63;;;3.94;100.00
55914;BME280;58179;48.776;9.124;2023-02-12T01:26:46;99308.00;;;3.99;100.00
55914;BME280;58179;48.776;9.124;2023-02-12T01:29:12;99301.47;;;4.03;100.00
55914;BME280;58179;48.776;9.124;2023-02-12T01:31:38;99293.94;;;4.00;100.00
55914;BME280;58179;48.776;9.124;2023-02-12T01:34:06;99294.59;;;3.94;100.00
55914;BME280;58179;48.776;9.124;2023-02-12T01:36:33;99303.94;;;3.97;100.00
55914;BME280;58179;48.776;9.124;2023-02-12T01:38:59;99301.78;;;4.00;100.00
55914;BME280;58179;48.776;9.124;2023-02-12T01:41:29;99300.00;;;4.01;100.00
55914;BME280;58179;48.776;9.124;2023-02-12T01:44:12;99298.84;;;3.95;100.00
55914;BME280;58179;48.776;9.124;2023-02-12T01:46:40;99300.66;;;3.95;100.00
55914;BME280;58179;48.776;9.124;2023-02-12T01:49:12;99285.75;;;3.95;100.00
55914;BME280;58179;48.776;9.124;2023-02-12T01:51:40;99286.88;;;3.93;100.00
55914;BME280;58179;48.776;9.124;2023-02-12T01:54:10;99287.88;;;3.92;100.00
55914;BME280;58179;48.776;9.124;2023-02-12T01:56:37;99290.00;;;3.96;100.00
55914;BME280;58179;48.776;9.124;2023-02-12T01:59:04;99291.47;;;3.99;100.00
55914;BME280;58179;48.776;9.124;2023-02-12T02:01:32;99289.22;;;4.04;100.00
55914;BME280;58179;48.776;9.124;2023-02-12T02:04:03;99281.81;;;4.07;100.00
55914;BME280;58179;48.776;9.124;2023-02-12T02:06:35;99281.50;;;4.02;100.00
55914;BME280;58179;48.776;9.124;2023-02-12T02:09:03;99288.53;;;4.02;100.00
55914;BME280;58179;48.776;9.124;2023-02-12T02:11:29;99285.75;;;4.03;100.00
55914;BME280;58179;48.776;9.124;2023-02-12T02:14:14;99290.66;;;4.06;100.00
55914;BME280;58179;48.776;9.124;2023-02-12T02:17:25;99283.97;;;4.12;100.00
55914;BME280;58179;48.776;9.124;2023-02-12T02:23:44;99278.88;;;4.02;100.00
55914;BME280;58179;48.776;9.124;2023-02-12T02:26:53;99264.81;;;4.03;100.00
55914;BME280;58179;48.776;9.124;2023-02-12T02:32:29;99261.34;;;4.03;100.00
55914;BME280;58179;48.776;9.124;2023-02-12T02:35:01;99262.50;;;4.00;100.00
55914;BME280;58179;48.776;9.124;2023-02-12T02:37:33;99265.78;;;4.02;100.00
55914;BME280;58179;48.776;9.124;2023-02-12T02:40:09;99261.66;;;4.00;100.00
55914;BME280;58179;48.776;9.124;2023-02-12T02:42:41;99261.34;;;4.03;100.00
55914;BME280;58179;48.776;9.124;2023-02-12T02:45:13;99257.91;;;3.94;100.00
55914;BME280;58179;48.776;9.124;2023-02-12T02:47:44;99262.31;;;3.94;100.00
55914;BME280;58179;48.776;9.124;2023-02-12T02:50:14;99255.13;;;3.96;100.00
55914;BME280;58179;48.776;9.124;2023-02-12T02:52:46;99263.97;;;3.95;100.00
55914;BME280;58179;48.776;9.124;2023-02-12T02:55:17;99260.38;;;3.96;100.00
55914;BME280;58179;48.776;9.124;2023-02-12T02:57:47;99259.25;;;3.98;100.00
55914;BME280;58179;48.776;9.124;2023-02-12T03:00:20;99258.06;;;4.01;100.00
55914;BME280;58179;48.776;9.124;2023-02-12T03:02:53;99260.53;;;4.02;100.00
55914;BME280;58179;48.776;9.124;2023-02-12T03:05:24;99264.13;;;3.93;100.00
55914;BME280;58179;48.776;9.124;2023-02-12T03:07:57;99258.06;;;3.93;100.00
55914;BME280;58179;48.776;9.124;2023-02-12T03:10:29;99262.19;;;3.95;100.00
55914;BME280;58179;48.776;9.124;2023-02-12T03:13:01;99263.81;;;3.96;100.00
55914;BME280;58179;48.776;9.124;2023-02-12T03:15:33;99261.50;;;3.93;100.00
55914;BME280;58179;48.776;9.124;2023-02-12T03:18:07;99270.19;;;3.94;100.00
55914;BME280;58179;48.776;9.124;2023-02-12T03:20:38;99266.44;;;3.96;100.00
55914;BME280;58179;48.776;9.124;2023-02-12T03:23:11;99265.47;;;3.97;100.00
55914;BME280;58179;48.776;9.124;2023-02-12T03:25:43;99269.22;;;3.95;100.00
55914;BME280;58179;48.776;9.124;2023-02-12T03:28:17;99270.34;;;3.92;100.00
55914;BME280;58179;48.776;9.124;2023-02-12T03:30:49;99271.16;;;3.93;100.00
55914;BME280;58179;48.776;9.124;2023-02-12T03:33:26;99277.06;;;3.86;100.00
55914;BME280;58179;48.776;9.124;2023-02-12T03:35:58;99275.25;;;3.87;100.00
55914;BME280;58179;48.776;9.124;2023-02-12T03:38:35;99265.28;;;3.91;100.00
55914;BME280;58179;48.776;9.124;2023-02-12T03:41:08;99274.94;;;3.90;100.00
55914;BME280;58179;48.776;9.124;2023-02-12T03:43:46;99273.31;;;3.89;100.00
55914;BME280;58179;48.776;9.124;2023-02-12T03:46:19;99274.13;;;3.89;100.00
55914;BME280;58179;48.776;9.124;2023-02-12T03:48:58;99266.41;;;3.80;100.00
55914;BME280;58179;48.776;9.124;2023-02-12T03:51:31;99266.56;;;3.78;100.00
55914;BME280;58179;48.776;9.124;2023-02-12T03:54:00;99277.03;;;3.78;100.00
55914;BME280;58179;48.776;9.124;2023-02-12T03:56:33;99268.72;;;3.83;100.00
55914;BME280;58179;48.776;9.124;2023-02-12T03:59:03;99281.00;;;3.82;100.00
55914;BME280;58179;48.776;9.124;2023-02-12T04:01:30;99272.94;;;3.84;100.00
55914;BME280;58179;48.776;9.124;2023-02-12T04:03:58;99281.31;;;3.87;100.00
55914;BME280;58179;48.776;9.124;2023-02-12T04:06:27;99287.22;;;3.81;100.00
55914;BME280;58179;48.776;9.124;2023-02-12T04:09:01;99289.47;;;3.76;100.00
55914;BME280;58179;48.776;9.124;2023-02-12T04:11:33;99291.63;;;3.81;100.00
55914;BME280;58179;48.776;9.124;2023-02-12T04:14:17;99279.00;;;3.84;100.00
55914;BME280;58179;48.776;9.124;2023-02-12T04:16:50;99275.41;;;3.85;100.00
55914;BME280;58179;48.776;9.124;2023-02-12T04:19:32;99283.13;;;3.87;100.00
55914;BME280;58179;48.776;9.124;2023-02-12T04:22:22;99285.91;;;3.85;100.00
55914;BME280;58179;48.776;9.124;2023-02-12T04:25:00;99285.75;;;3.87;100.00
55914;BME280;58179;48.776;9.124;2023-02-12T04:27:36;99285.25;;;3.92;100.00
55914;BME280;58179;48.776;9.124;2023-02-12T04:30:12;99289.34;;;3.86;100.00
55914;BME280;58179;48.776;9.124;2023-02-12T04:32:47;99290.31;;;3.85;100.00
55914;BME280;58179;48.776;9.124;2023-02-12T04:35:22;99290.31;;;3.85;100.00
55914;BME280;58179;48.776;9.124;2023-02-12T04:37:54;99293.59;;;3.79;100.00
55914;BME280;58179;48.776;9.124;2023-02-12T04:40:22;99293.59;;;3.79;100.00
55914;BME280;58179;48.776;9.124;2023-02-12T04:42:50;99306.69;;;3.79;100.00
55914;BME280;58179;48.776;9.124;2023-02-12T04:45:21;99307.50;;;3.79;100.00
55914;BME280;58179;48.776;9.124;2023-02-12T04:47:49;99308.16;;;3.81;100.00
55914;BME280;58179;48.776;9.124;2023-02-12T04:50:17;99303.09;;;3.80;100.00
55914;BME280;58179;48.776;9.124;2023-02-12T04:52:43;99303.25;;;3.86;100.00
55914;BME280;58179;48.776;9.124;2023-02-12T04:55:09;99314.72;;;3.85;100.00
55914;BME280;58179;48.776;9.124;2023-02-12T04:57:35;99310.28;;;3.86;100.00
55914;BME280;58179;48.776;9.124;2023-02-12T05:00:01;99307.00;;;3.84;100.00
55914;BME280;58179;48.776;9.124;2023-02-12T05:02:30;99317.16;;;3.79;100.00
55914;BME280;58179;48.776;9.124;2023-02-12T05:04:56;99312.75;;;3.79;100.00
55914;BME280;58179;48.776;9.124;2023-02-12T05:07:23;99311.75;;;3.80;100.00
55914;BME280;58179;48.776;9.124;2023-02-12T05:12:25;99300.47;;;3.80;100.00
55914;BME280;58179;48.776;9.124;2023-02-12T05:14:50;99304.88;;;3.79;100.00
55914;BME280;58179;48.776;9.124;2023-02-12T05:17:16;99297.84;;;3.80;100.00
55914;BME280;58179;48.776;9.124;2023-02-12T05:19:42;99305.41;;;3.83;100.00
55914;BME280;58179;48.776;9.124;2023-02-12T05:22:08;99296.53;;;3.84;100.00
55914;BME280;58179;48.776;9.124;2023-02-12T05:24:36;99301.63;;;3.85;100.00
55914;BME280;58179;48.776;9.124;2023-02-12T05:27:02;99299.97;;;3.84;100.00
55914;BME280;58179;48.776;9.124;2023-02-12T05:29:28;99295.56;;;3.85;100.00
55914;BME280;58179;48.776;9.124;2023-02-12T05:31:54;99297.34;;;3.84;100.00
55914;BME280;58179;48.776;9.124;2023-02-12T05:34:20;99301.47;;;3.87;100.00
55914;BME280;58179;48.776;9.124;2023-02-12T05:36:45;99302.59;;;3.84;100.00
55914;BME280;58179;48.776;9.124;2023-02-12T05:39:11;99301.13;;;3.82;100.00
55914;BME280;58179;48.776;9.124;2023-02-12T05:41:39;99307.19;;;3.82;100.00
55914;BME280;58179;48.776;9.124;2023-02-12T05:44:05;99300.94;;;3.83;100.00
55914;BME280;58179;48.776;9.124;2023-02-12T05:46:31;99301.13;;;3.82;100.00
55914;BME280;58179;48.776;9.124;2023-02-12T05:48:58;99302.09;;;3.81;100.00
55914;BME280;58179;48.776;9.124;2023-02-12T05:51:25;99302.78;;;3.83;100.00
55914;BME280;58179;48.776;9.124;2023-02-12T05:53:55;99298.16;;;3.85;100.00
55914;BME280;58179;48.776;9.124;2023-02-12T05:56:26;99300.63;;;3.86;100.00
55914;BME280;58179;48.776;9.124;2023-02-12T05:58:56;99308.34;;;3.88;100.00
55914;BME280;58179;48.776;9.124;2023-02-12T06:01:25;99309.47;;;3.85;100.00
55914;BME280;58179;48.776;9.124;2023-02-12T06:03:51;99317.47;;;3.84;100.00
55914;BME280;58179;48.776;9.124;2023-02-12T06:06:17;99314.03;;;3.83;100.00
55914;BME280;58179;48.776;9.124;2023-02-12T06:08:46;99304.38;;;3.84;100.00
55914;BME280;58179;48.776;9.124;2023-02-12T06:11:13;99305.38;;;3.75;100.00
55914;BME280;58179;48.776;9.124;2023-02-12T06:13:40;99308.00;;;3.75;100.00
55914;BME280;58179;48.776;9.124;2023-02-12T06:16:17;99305.19;;;3.76;100.00
55914;BME280;58179;48.776;9.124;2023-02-12T06:18:43;99302.41;;;3.78;100.00
55914;BME280;58179;48.776;9.124;2023-02-12T06:21:09;99303.25;;;3.78;100.00
55914;BME280;58179;48.776;9.124;2023-02-12T06:23:35;99307.66;;;3.78;100.00
55914;BME280;58179;48.776;9.124;2023-02-12T06:26:01;99305.22;;;3.84;100.00
55914;BME280;58179;48.776;9.124;2023-02-12T06:28:27;99305.72;;;3.88;100.00
55914;BME280;58179;48.776;9.124;2023-02-12T06:30:53;99310.81;;;3.89;100.00
55914;BME280;58179;48.776;9.124;2023-02-12T06:33:20;99305.88;;;3.86;100.00
55914;BME280;58179;48.776;9.124;2023-02-12T06:35:46;99311.25;;;3.85;100.00
55914;BME280;58179;48.776;9.124;2023-02-12T06:38:13;99315.88;;;3.83;100.00
55914;BME280;58179;48.776;9.124;2023-02-12T06:40:39;99322.56;;;3.85;100.00
55914;BME280;58179;48.776;9.124;2023-02-12T06:43:05;99325.69;;;3.89;100.00
55914;BME280;58179;48.776;9.124;2023-02-12T06:45:32;99322.41;;;3.87;100.00
55914;BME280;58179;48.776;9.124;2023-02-12T06:47:58;99330.44;;;3.85;100.00
55914;BME280;58179;48.776;9.124;2023-02-12T06:50:25;99324.22;;;3.86;100.00
55914;BME280;58179;48.776;9.124;2023-02-12T06:52:51;99325.69;;;3.89;100.00
55914;BME280;58179;48.776;9.124;2023-02-12T06:55:17;99326.53;;;3.89;100.00
55914;BME280;58179;48.776;9.124;2023-02-12T06:57:43;99331.75;;;3.89;100.00
55914;BME280;58179;48.776;9.124;2023-02-12T07:00:11;99337.00;;;3.89;100.00
55914;BME280;58179;48.776;9.124;2023-02-12T07:02:37;99341.56;;;3.87;100.00
55914;BME280;58179;48.776;9.124;2023-02-12T07:05:03;99349.91;;;3.91;100.00
55914;BME280;58179;48.776;9.124;2023-02-12T07:07:30;99344.38;;;3.94;100.00
55914;BME280;58179;48.776;9.124;2023-02-12T07:09:56;99334.03;;;3.93;100.00
55914;BME280;58179;48.776;9.124;2023-02-12T07:12:22;99341.59;;;3.96;100.00
55914;BME280;58179;48.776;9.124;2023-02-12T07:14:48;99344.69;;;3.99;100.00
55914;BME280;58179;48.776;9.124;2023-02-12T07:17:14;99348.13;;;4.00;100.00
55914;BME280;58179;48.776;9.124;2023-02-12T07:19:40;99334.22;;;3.99;100.00
55914;BME280;58179;48.776;9.124;2023-02-12T07:22:05;99343.56;;;4.02;100.00
55914;BME280;58179;48.776;9.124;2023-02-12T07:24:33;99341.75;;;4.02;100.00
55914;BME280;58179;48.776;9.124;2023-02-12T07:26:59;99338.00;;;4.05;100.00
55914;BME280;58179;48.776;9.124;2023-02-12T07:29:24;99339.16;;;4.10;100.00
55914;BME280;58179;48.776;9.124;2023-02-12T07:31:50;99341.47;;;4.13;100.00
55914;BME280;58179;48.776;9.124;2023-02-12T07:34:16;99342.94;;;4.16;100.00
55914;BME280;58179;48.776;9.124;2023-02-12T07:36:42;99335.56;;;4.19;100.00
55914;BME280;58179;48.776;9.124;2023-02-12T07:39:10;99343.09;;;4.22;100.00
55914;BME280;58179;48.776;9.124;2023-02-12T07:41:39;99344.44;;;4.26;100.00
55914;BME280;58179;48.776;9.124;2023-02-12T07:44:07;99345.88;;;4.29;100.00
55914;BME280;58179;48.776;9.124;2023-02-12T07:46:36;99344.59;;;4.33;100.00
55914;BME280;58179;48.776;9.124;2023-02-12T07:49:04;99345.56;;;4.40;100.00
55914;BME280;58179;48.776;9.124;2023-02-12T07:51:32;99338.03;;;4.45;100.00
55914;BME280;58179;48.776;9.124;2023-02-12T07:53:59;99342.59;;;4.51;100.00
55914;BME280;58179;48.776;9.124;2023-02-12T07:56:28;99343.13;;;4.55;100.00
55914;BME280;58179;48.776;9.124;2023-02-12T07:59:00;99338.84;;;4.62;100.00
55914;BME280;58179;48.776;9.124;2023-02-12T08:01:29;99339.16;;;4.67;100.00
55914;BME280;58179;48.776;9.124;2023-02-12T08:03:58;99335.91;;;4.73;100.00
55914;BME280;58179;48.776;9.124;2023-02-12T08:06:26;99341.47;;;4.78;100.00
55914;BME280;58179;48.776;9.124;2023-02-12T08:08:55;99334.06;;;4.82;100.00
55914;BME280;58179;48.776;9.124;2023-02-12T08:11:21;99345.72;;;4.87;100.00
55914;BME280;58179;48.776;9.124;2023-02-12T08:13:47;99331.25;;;4.91;100.00
55914;BME280;58179;48.776;9.124;2023-02-12T08:16:17;99333.56;;;4.94;100.00
55914;BME280;58179;48.776;9.124;2023-02-12T08:18:44;99338.31;;;4.99;100.00
55914;BME280;58179;48.776;9.124;2023-02-12T08:21:12;99332.91;;;5.00;100.00
55914;BME280;58179;48.776;9.124;2023-02-12T08:23:39;99341.22;;;5.04;100.00
55914;BME280;58179;48.776;9.124;2023-02-12T08:28:34;99325.16;;;5.07;100.00
55914;BME280;58179;48.776;9.124;2023-02-12T08:31:01;99324.03;;;5.10;100.00
55914;BME280;58179;48.776;9.124;2023-02-12T08:33:29;99330.41;;;5.15;100.00
55914;BME280;58179;48.776;9.124;2023-02-12T08:36:01;99332.19;;;5.23;100.00
55914;BME280;58179;48.776;9.124;2023-02-12T08:38:27;99331.66;;;5.27;100.00
55914;BME280;58179;48.776;9.124;2023-02-12T08:40:53;99337.88;;;5.34;100.00
55914;BME280;58179;48.776;9.124;2023-02-12T08:43:20;99338.81;;;5.41;100.00
55914;BME280;58179;48.776;9.124;2023-02-12T08:45:46;99337.34;;;5.47;100.00
55914;BME280;58179;48.776;9.124;2023-02-12T08:48:11;99339.44;;;5.52;100.00
55914;BME280;58179;48.776;9.124;2023-02-12T08:50:39;99343.03;;;5.59;100.00
55914;BME280;58179;48.776;9.124;2023-02-12T08:53:04;99345.16;;;5.63;100.00
55914;BME280;58179;48.776;9.124;2023-02-12T08:55:32;99348.75;;;5.70;100.00
55914;BME280;58179;48.776;9.124;2023-02-12T08:57:58;99343.13;;;5.73;100.00
55914;BME280;58179;48.776;9.124;2023-02-12T09:00:24;99345.41;;;5.76;100.00
55914;BME280;58179;48.776;9.124;2023-02-12T09:02:50;99338.66;;;5.82;100.00
55914;BME280;58179;48.776;9.124;2023-02-12T09:05:16;99345.38;;;5.84;100.00
55914;BME280;58179;48.776;9.124;2023-02-12T09:07:43;99349.31;;;5.89;100.00
55914;BME280;58179;48.776;9.124;2023-02-12T09:10:10;99348.97;;;5.92;100.00
55914;BME280;58179;48.776;9.124;2023-02-12T09:12:35;99350.91;;;5.98;100.00
55914;BME280;58179;48.776;9.124;2023-02-12T09:15:02;99353.38;;;5.99;100.00
55914;BME280;58179;48.776;9.124;2023-02-12T09:17:28;99352.19;;;6.02;100.00
55914;BME280;58179;48.776;9.124;2023-02-12T09:19:55;99347.41;;;6.05;100.00
55914;BME280;58179;48.776;9.124;2023-02-12T09:22:22;99347.25;;;6.07;100.00
55914;BME280;58179;48.776;9.124;2023-02-12T09:24:49;99343.44;;;6.09;100.00
55914;BME280;58179;48.776;9.124;2023-02-12T09:27:15;99342.09;;;6.13;100.00
55914;BME280;58179;48.776;9.124;2023-02-12T09:29:40;99342.38;;;6.18;100.00
55914;BME280;58179;48.776;9.124;2023-02-12T09:32:06;99351.09;;;6.19;100.00
55914;BME280;58179;48.776;9.124;2023-02-12T09:34:34;99355.84;;;6.24;100.00
55914;BME280;58179;48.776;9.124;2023-02-12T09:37:00;99359.28;;;6.24;100.00
55914;BME280;58179;48.776;9.124;2023-02-12T09:39:26;99356.47;;;6.26;100.00
55914;BME280;58179;48.776;9.124;2023-02-12T09:42:17;99358.41;;;6.32;100.00
55914;BME280;58179;48.776;9.124;2023-02-12T09:44:53;99364.31;;;6.34;100.00
55914;BME280;58179;48.776;9.124;2023-02-12T09:47:29;99358.06;;;6.35;100.00
55914;BME280;58179;48.776;9.124;2023-02-12T09:50:10;99348.66;;;6.40;100.00
55914;BME280;58179;48.776;9.124;2023-02-12T09:52:39;99354.22;;;6.45;100.00
55914;BME280;58179;48.776;9.124;2023-02-12T09:55:06;99352.03;;;6.49;100.00
55914;BME280;58179;48.776;9.124;2023-02-12T09:57:37;99358.06;;;6.57;100.00
55914;BME280;58179;48.776;9.124;2023-02-12T10:00:06;99356.81;;;6.68;100.00
55914;BME280;58179;48.776;9.124;2023-02-12T10:02:35;99356.94;;;6.75;100.00
55914;BME280;58179;48.776;9.124;2023-02-12T10:05:02;99346.94;;;6.85;100.00
55914;BME280;58179;48.776;9.124;2023-02-12T10:08:06;99344.63;;;6.90;100.00
55914;BME280;58179;48.776;9.124;2023-02-12T10:10:50;99351.63;;;6.97;100.00
55914;BME280;58179;48.776;9.124;2023-02-12T10:13:30;99357.63;;;7.06;100.00
55914;BME280;58179;48.776;9.124;2023-02-12T10:16:08;99350.81;;;7.12;100.00
55914;BME280;58179;48.776;9.124;2023-02-12T10:19:01;99349.44;;;7.16;100.00
55914;BME280;58179;48.776;9.124;2023-02-12T10:21:43;99352.53;;;7.19;100.00
55914;BME280;58179;48.776;9.124;2023-02-12T10:24:32;99350.56;;;7.21;100.00
55914;BME280;58179;48.776;9.124;2023-02-12T10:27:06;99347.19;;;7.13;100.00
55914;BME280;58179;48.776;9.124;2023-02-12T10:29:39;99345.53;;;7.12;100.00
55914;BME280;58179;48.776;9.124;2023-02-12T10:32:20;99353.34;;;7.20;100.00
55914;BME280;58179;48.776;9.124;2023-02-12T10:34:50;99341.91;;;7.27;100.00
55914;BME280;58179;48.776;9.124;2023-02-12T10:37:27;99347.53;;;7.24;100.00
55914;BME280;58179;48.776;9.124;2023-02-12T10:40:02;99341.38;;;7.32;100.00
55914;BME280;58179;48.776;9.124;2023-02-12T10:42:37;99339.28;;;7.13;100.00
55914;BME280;58179;48.776;9.124;2023-02-12T10:45:11;99335.53;;;7.22;100.00
55914;BME280;58179;48.776;9.124;2023-02-12T10:47:38;99333.63;;;7.30;100.00
55914;BME280;58179;48.776;9.124;2023-02-12T10:50:17;99342.44;;;7.37;100.00
55914;BME280;58179;48.776;9.124;2023-02-12T10:52:48;99333.84;;;7.44;100.00
55914;BME280;58179;48.776;9.124;2023-02-12T10:55:25;99329.47;;;7.51;100.00
55914;BME280;58179;48.776;9.124;2023-02-12T10:57:51;99333.53;;;7.53;100.00
55914;BME280;58179;48.776;9.124;2023-02-12T11:00:28;99329.72;;;7.56;100.00
55914;BME280;58179;48.776;9.124;2023-02-12T11:03:07;99333.19;;;7.56;100.00
55914;BME280;58179;48.776;9.124;2023-02-12T11:05:43;99323.88;;;7.60;100.00
55914;BME280;58179;48.776;9.124;2023-02-12T11:08:29;99323.06;;;7.60;100.00
55914;BME280;58179;48.776;9.124;2023-02-12T11:11:03;99322.72;;;7.63;100.00
55914;BME280;58179;48.776;9.124;2023-02-12T11:13:31;99322.59;;;7.71;100.00
55914;BME280;58179;48.776;9.124;2023-02-12T11:15:58;99326.13;;;7.78;100.00
55914;BME280;58179;48.776;9.124;2023-02-12T11:18:28;99322.75;;;7.84;100.00
55914;BME280;58179;48.776;9.124;2023-02-12T11:21:00;99321.19;;;7.90;100.00
55914;BME280;58179;48.776;9.124;2023-02-12T11:23:29;99323.28;;;7.94;100.00
55914;BME280;58179;48.776;9.124;2023-02-12T11:26:02;99317.88;;;8.02;100.00
55914;BME280;58179;48.776;9.124;2023-02-12T11:28:29;99316.69;;;8.05;100.00
55914;BME280;58179;48.776;9.124;2023-02-12T11:31:00;99309.22;;;8.08;100.00
55914;BME280;58179;48.776;9.124;2023-02-12T11:33:31;99310.09;;;8.15;100.00
55914;BME280;58179;48.776;9.124;2023-02-12T11:36:02;99304.25;;;8.20;100.00
55914;BME280;58179;48.776;9.124;2023-02-12T11:38:33;99304.69;;;8.24;100.00
55914;BME280;58179;48.776;9.124;2023-02-12T11:41:22;99304.25;;;8.20;100.00
55914;BME280;58179;48.776;9.124;2023-02-12T11:43:49;99305.69;;;8.23;100.00
55914;BME280;58179;48.776;9.124;2023-02-12T11:46:22;99303.88;;;8.23;100.00
55914;BME280;58179;48.776;9.124;2023-02-12T11:48:50;99304.34;;;8.27;100.00
55914;BME280;58179;48.776;9.124;2023-02-12T11:51:23;99297.13;;;8.35;100.00
55914;BME280;58179;48.776;9.124;2023-02-12T11:53:52;99299.66;;;8.50;100.00
55914;BME280;58179;48.776;9.124;2023-02-12T11:56:20;99295.72;;;8.61;100.00
55914;BME280;58179;48.776;9.124;2023-02-12T11:58:46;99289.47;;;8.68;100.00
55914;BME280;58179;48.776;9.124;2023-02-12T12:01:19;99291.53;;;8.73;100.00
55914;BME280;58179;48.776;9.124;2023-02-12T12:03:57;99301.53;;;8.77;100.00
55914;BME280;58179;48.776;9.124;2023-02-12T12:06:36;99305.81;;;8.78;100.00
55914;BME280;58179;48.776;9.124;2023-02-12T12:09:09;99290.19;;;8.83;100.00
55914;BME280;58179;48.776;9.124;2023-02-12T12:11:56;99286.53;;;8.84;100.00
55914;BME280;58179;48.776;9.124;2023-02-12T12:14:26;99289.16;;;8.78;100.00
55914;BME280;58179;48.776;9.124;2023-02-12T12:16:59;99287.56;;;8.83;100.00
55914;BME280;58179;48.776;9.124;2023-02-12T12:19:54;99281.91;;;8.86;100.00
55914;BME280;58179;48.776;9.124;2023-02-12T12:22:39;99279.88;;;8.95;100.00
55914;BME280;58179;48.776;9.124;2023-02-12T12:25:21;99280.16;;;9.00;100.00
55914;BME280;58179;48.776;9.124;2023-02-12T12:28:00;99281.41;;;9.11;100.00
55914;BME280;58179;48.776;9.124;2023-02-12T12:31:00;99285.50;;;9.13;100.00
55914;BME280;58179;48.776;9.124;2023-02-12T12:33:38;99280.03;;;9.15;100.00
55914;BME280;58179;48.776;9.124;2023-02-12T12:36:44;99277.19;;;9.16;100.00
55914;BME280;58179;48.776;9.124;2023-02-12T12:42:22;99281.91;;;9.27;100.00
55914;BME280;58179;48.776;9.124;2023-02-12T12:45:09;99280.94;;;9.35;100.00
55914;BME280;58179;48.776;9.124;2023-02-12T12:47:53;99277.50;;;9.41;100.00
55914;BME280;58179;48.776;9.124;2023-02-12T12:50:41;99265.56;;;9.52;100.00
55914;BME280;58179;48.776;9.124;2023-02-12T12:53:26;99270.50;;;9.68;100.00
55914;BME280;58179;48.776;9.124;2023-02-12T12:56:21;99258.31;;;9.87;100.00
55914;BME280;58179;48.776;9.124;2023-02-12T12:59:14;99256.13;;;10.03;100.00
55914;BME280;58179;48.776;9.124;2023-02-12T13:02:00;99256.97;;;10.17;100.00
55914;BME280;58179;48.776;9.124;2023-02-12T13:05:07;99254.13;;;10.32;100.00
55914;BME280;58179;48.776;9.124;2023-02-12T13:07:54;99251.88;;;10.48;100.00
55914;BME280;58179;48.776;9.124;2023-02-12T13:10:32;99250.88;;;10.56;100.00
55914;BME280;58179;48.776;9.124;2023-02-12T13:13:08;99245.53;;;10.76;100.00
55914;BME280;58179;48.776;9.124;2023-02-12T13:15:43;99240.41;;;10.94;100.00
55914;BME280;58179;48.776;9.124;2023-02-12T13:18:21;99234.63;;;11.17;100.00
55914;BME280;58179;48.776;9.124;2023-02-12T13:20:58;99237.16;;;11.43;100.00
55914;BME280;58179;48.776;9.124;2023-02-12T13:23:37;99234.66;;;11.61;100.00
55914;BME280;58179;48.776;9.124;2023-02-12T13:26:15;99232.84;;;11.55;100.00
55914;BME280;58179;48.776;9.124;2023-02-12T13:28:48;99224.97;;;11.74;100.00
55914;BME280;58179;48.776;9.124;2023-02-12T13:31:20;99230.47;;;11.85;100.00
55914;BME280;58179;48.776;9.124;2023-02-12T13:33:51;99223.13;;;11.81;100.00
55914;BME280;58179;48.776;9.124;2023-02-12T13:36:17;99227.91;;;11.97;100.00